createdAt,value
2023-01-02T00:00:37.382Z,97539.28
2023-01-02T00:05:57.572Z,97531.13
2023-01-02T00:10:59.770Z,97524.66
2023-01-02T00:16:03.234Z,97537.09
2023-01-02T00:21:06.210Z,97529.38
2023-01-02T00:26:08.463Z,97518.69
2023-01-02T00:31:13.859Z,97526.88
2023-01-02T00:36:16.071Z,97518.50
2023-01-02T00:41:18.875Z,97516.78
2023-01-02T00:46:23.248Z,97524.16
2023-01-02T00:51:25.388Z,97521.38
2023-01-02T00:56:27.371Z,97522.72
2023-01-02T01:01:30.867Z,97517.81
2023-01-02T01:06:33.049Z,97510.06
2023-01-02T01:11:35.006Z,97519.91
2023-01-02T01:16:38.389Z,97504.25
2023-01-02T01:21:40.217Z,97501.09
2023-01-02T01:26:42.234Z,97503.59
2023-01-02T01:31:45.622Z,97493.19
2023-01-02T01:36:47.670Z,97489.59
2023-01-02T01:41:49.696Z,97477.59
2023-01-02T01:46:53.317Z,97467.53
2023-01-02T01:52:01.840Z,97470.59
2023-01-02T01:57:12.862Z,97466.28
2023-01-02T02:02:17.415Z,97465.50
2023-01-02T02:07:19.691Z,97440.72
2023-01-02T02:12:27.858Z,97429.84
2023-01-02T02:17:40.323Z,97427.31
2023-01-02T02:23:01.181Z,97433.66
2023-01-02T02:28:28.729Z,97458.38
2023-01-02T02:33:44.153Z,97464.66
2023-01-02T02:39:03.101Z,97450.75
2023-01-02T02:44:20.266Z,97453.63
2023-01-02T02:49:35.050Z,97450.72
2023-01-02T02:54:44.008Z,97447.66
2023-01-02T02:59:46.491Z,97437.97
2023-01-02T03:04:54.469Z,97435.03
2023-01-02T03:10:09.537Z,97435.03
2023-01-02T03:15:19.924Z,97435.19
2023-01-02T03:20:28.255Z,97433.38
2023-01-02T03:25:32.969Z,97415.88
2023-01-02T03:30:39.041Z,97382.88
2023-01-02T03:35:45.315Z,97381.34
2023-01-02T03:40:53.225Z,97384.34
2023-01-02T03:46:03.646Z,97373.16
2023-01-02T03:51:07.839Z,97372.44
2023-01-02T03:56:22.343Z,97371.31
2023-01-02T04:01:33.820Z,97368.94
2023-01-02T04:06:42.909Z,97376.19
2023-01-02T04:11:50.590Z,97375.31
2023-01-02T04:16:55.442Z,97371.03
2023-01-02T04:22:04.773Z,97364.69
2023-01-02T04:27:12.881Z,97369.00
2023-01-02T04:32:19.397Z,97373.38
2023-01-02T04:37:34.817Z,97373.53
2023-01-02T04:42:36.999Z,97373.38
2023-01-02T04:47:38.981Z,97386.28
2023-01-02T04:52:42.376Z,97384.72
2023-01-02T04:57:44.335Z,97377.63
2023-01-02T05:02:46.376Z,97363.94
2023-01-02T05:07:49.921Z,97370.28
2023-01-02T05:12:51.880Z,97380.00
2023-01-02T05:17:53.922Z,97372.38
2023-01-02T05:23:15.941Z,97361.88
2023-01-02T05:28:17.827Z,97356.97
2023-01-02T05:33:19.804Z,97351.16
2023-01-02T05:38:23.385Z,97350.50
2023-01-02T05:43:25.336Z,97347.13
2023-01-02T05:48:28.357Z,97340.59
2023-01-02T05:53:31.988Z,97351.28
2023-01-02T05:58:34.934Z,97349.72
2023-01-02T06:03:37.530Z,97354.63
2023-01-02T06:08:40.956Z,97360.31
2023-01-02T06:13:42.947Z,97358.16
2023-01-02T06:18:44.933Z,97357.00
2023-01-02T06:23:53.004Z,97354.50
2023-01-02T06:28:57.046Z,97360.94
2023-01-02T06:34:00.526Z,97342.50
2023-01-02T06:39:04.099Z,97341.41
2023-01-02T06:44:06.403Z,97341.16
2023-01-02T06:49:08.410Z,97346.94
2023-01-02T06:54:11.711Z,97345.72
2023-01-02T06:59:13.986Z,97351.47
2023-01-02T07:04:16.915Z,97353.00
2023-01-02T07:09:20.250Z,97366.44
2023-01-02T07:14:22.311Z,97357.34
2023-01-02T07:19:24.321Z,97372.88
2023-01-02T07:24:27.624Z,97376.13
2023-01-02T07:29:29.583Z,97395.13
2023-01-02T07:34:31.668Z,97387.00
2023-01-02T07:39:35.049Z,97391.41
2023-01-02T07:44:37.083Z,97377.94
2023-01-02T07:49:39.143Z,97389.75
2023-01-02T07:54:42.455Z,97390.13
2023-01-02T07:59:46.945Z,97386.22
2023-01-02T08:04:49.006Z,97388.28
2023-01-02T08:09:52.355Z,97380.41
2023-01-02T08:14:54.317Z,97376.31
2023-01-02T08:20:00.284Z,97386.94
2023-01-02T08:25:09.113Z,97375.78
2023-01-02T08:30:11.907Z,97376.25
2023-01-02T08:35:13.936Z,97368.78
2023-01-02T08:40:17.287Z,97366.63
2023-01-02T08:45:19.346Z,97374.03
2023-01-02T08:50:21.856Z,97361.53
2023-01-02T08:55:25.263Z,97370.13
2023-01-02T09:00:27.339Z,97361.09
2023-01-02T09:05:30.920Z,97363.22
2023-01-02T09:10:34.295Z,97359.09
2023-01-02T09:15:36.345Z,97351.69
2023-01-02T09:20:39.729Z,97342.44
2023-01-02T09:25:43.348Z,97341.00
2023-01-02T09:30:45.329Z,97337.53
2023-01-02T09:35:47.360Z,97335.19
2023-01-02T09:40:53.179Z,97327.66
2023-01-02T09:45:57.244Z,97337.56
2023-01-02T09:51:07.123Z,97323.75
2023-01-02T09:56:22.527Z,97311.25
2023-01-02T10:01:28.940Z,97320.34
2023-01-02T10:06:38.264Z,97312.50
2023-01-02T10:11:54.107Z,97316.38
2023-01-02T10:16:59.102Z,97314.63
2023-01-02T10:22:01.795Z,97300.31
2023-01-02T10:27:09.582Z,97302.91
2023-01-02T10:32:15.574Z,97297.50
2023-01-02T10:37:17.543Z,97291.06
2023-01-02T10:42:21.933Z,97299.13
2023-01-02T10:47:32.171Z,97295.38
2023-01-02T10:52:39.397Z,97278.88
2023-01-02T10:57:45.069Z,97263.94
2023-01-02T11:02:51.382Z,97254.81
2023-01-02T11:07:54.400Z,97251.91
2023-01-02T11:13:02.268Z,97236.34
2023-01-02T11:18:17.323Z,97240.16
2023-01-02T11:23:22.536Z,97230.84
2023-01-02T11:28:28.453Z,97226.22
2023-01-02T11:33:32.140Z,97222.19
2023-01-02T11:38:43.773Z,97220.22
2023-01-02T11:43:52.556Z,97215.22
2023-01-02T11:48:59.592Z,97228.84
2023-01-02T11:54:05.899Z,97224.78
2023-01-02T11:59:17.293Z,97218.91
2023-01-02T12:04:19.444Z,97212.09
2023-01-02T12:09:30.666Z,97210.75
2023-01-02T12:14:54.137Z,97210.31
2023-01-02T12:20:06.717Z,97205.91
2023-01-02T12:25:29.317Z,97205.72
2023-01-02T12:30:35.049Z,97212.69
2023-01-02T12:36:01.598Z,97204.47
2023-01-02T12:41:16.758Z,97212.66
2023-01-02T12:46:28.056Z,97196.97
2023-01-02T12:51:37.919Z,97198.47
2023-01-02T12:56:48.747Z,97216.94
2023-01-02T13:01:59.571Z,97211.81
2023-01-02T13:07:05.365Z,97214.22
2023-01-02T13:12:14.394Z,97216.34
2023-01-02T13:17:33.995Z,97213.66
2023-01-02T13:22:46.015Z,97219.75
2023-01-02T13:27:51.279Z,97224.44
2023-01-02T13:32:57.335Z,97224.88
2023-01-02T13:38:02.756Z,97223.69
2023-01-02T13:43:08.876Z,97238.47
2023-01-02T13:48:22.284Z,97239.34
2023-01-02T13:53:32.775Z,97255.34
2023-01-02T13:58:57.981Z,97242.53
2023-01-02T14:04:34.086Z,97233.00
2023-01-02T14:10:02.509Z,97225.13
2023-01-02T14:15:05.198Z,97219.00
2023-01-02T14:20:23.221Z,97222.16
2023-01-02T14:25:25.911Z,97228.09
2023-01-02T14:30:33.080Z,97231.38
2023-01-02T14:35:40.101Z,97245.50
2023-01-02T14:40:43.207Z,97250.38
2023-01-02T14:45:47.589Z,97252.53
2023-01-02T14:50:51.251Z,97254.94
2023-01-02T14:55:58.470Z,97238.78
2023-01-02T15:01:04.637Z,97247.00
2023-01-02T15:06:16.582Z,97249.97
2023-01-02T15:11:41.510Z,97252.47
2023-01-02T15:16:47.528Z,97265.91
2023-01-02T15:21:51.151Z,97276.09
2023-01-02T15:26:53.892Z,97281.03
2023-01-02T15:31:57.433Z,97283.38
2023-01-02T15:37:03.882Z,97273.25
2023-01-02T15:42:29.671Z,97295.19
2023-01-02T15:47:31.826Z,97295.53
2023-01-02T15:52:35.469Z,97290.00
2023-01-02T15:57:46.622Z,97298.53
2023-01-02T16:02:48.715Z,97307.28
2023-01-02T16:07:53.841Z,97318.97
2023-01-02T16:12:57.872Z,97315.19
2023-01-02T16:18:00.447Z,97301.22
2023-01-02T16:23:07.307Z,97305.03
2023-01-02T16:28:36.294Z,97291.41
2023-01-02T16:33:35.364Z,97289.56
2023-01-02T16:38:52.665Z,97269.25
2023-01-02T16:43:54.783Z,97267.94
2023-01-02T16:49:03.070Z,97275.56
2023-01-02T16:54:13.307Z,97267.44
2023-01-02T16:59:15.319Z,97264.97
2023-01-02T17:04:17.441Z,97253.97
2023-01-02T17:09:20.789Z,97265.22
2023-01-02T17:14:22.751Z,97264.63
2023-01-02T17:19:25.258Z,97264.97
2023-01-02T17:24:28.624Z,97275.88
2023-01-02T17:29:30.762Z,97279.44
2023-01-02T17:34:33.045Z,97280.69
2023-01-02T17:39:36.399Z,97271.09
2023-01-02T17:44:38.458Z,97269.78
2023-01-02T17:49:41.504Z,97288.72
2023-01-02T17:54:51.229Z,97293.13
2023-01-02T17:59:58.373Z,97285.47
2023-01-02T18:05:00.444Z,97253.88
2023-01-02T18:10:08.885Z,97246.25
2023-01-02T18:15:14.036Z,97257.44
2023-01-02T18:20:17.655Z,97265.13
2023-01-02T18:25:24.407Z,97266.66
2023-01-02T18:30:27.895Z,97282.84
2023-01-02T18:36:00.903Z,97300.47
2023-01-02T18:40:55.965Z,97305.16
2023-01-02T18:46:00.311Z,97325.63
2023-01-02T18:51:02.754Z,97322.34
2023-01-02T18:56:25.351Z,97312.53
2023-01-02T19:01:29.702Z,97318.91
2023-01-02T19:06:40.687Z,97316.38
2023-01-02T19:12:03.121Z,97317.06
2023-01-02T19:17:18.538Z,97318.91
2023-01-02T19:22:23.405Z,97304.94
2023-01-02T19:27:29.502Z,97300.00
2023-01-02T19:32:34.600Z,97296.81
2023-01-02T19:37:41.587Z,97291.75
2023-01-02T19:42:46.842Z,97272.78
2023-01-02T19:47:50.932Z,97281.78
2023-01-02T19:52:53.655Z,97291.41
2023-01-02T19:57:57.148Z,97298.31
2023-01-02T20:02:59.562Z,97301.47
2023-01-02T20:08:02.271Z,97304.16
2023-01-02T20:13:05.704Z,97301.13
2023-01-02T20:18:09.035Z,97306.19
2023-01-02T20:23:11.269Z,97332.59
2023-01-02T20:28:14.629Z,97332.16
2023-01-02T20:33:16.468Z,97360.38
2023-01-02T20:38:18.439Z,97362.06
2023-01-02T20:43:21.928Z,97371.09
2023-01-02T20:48:23.981Z,97366.97
2023-01-02T20:53:25.975Z,97368.06
2023-01-02T20:58:29.315Z,97368.81
2023-01-02T21:03:31.388Z,97375.34
2023-01-02T21:08:33.551Z,97387.72
2023-01-02T21:13:37.011Z,97401.88
2023-01-02T21:18:39.646Z,97410.06
2023-01-02T21:23:42.304Z,97417.66
2023-01-02T21:28:49.919Z,97426.22
2023-01-02T21:33:52.163Z,97438.19
2023-01-02T21:38:54.201Z,97446.16
2023-01-02T21:43:57.655Z,97445.38
2023-01-02T21:48:59.618Z,97447.22
2023-01-02T21:54:01.618Z,97445.28
2023-01-02T21:59:05.536Z,97452.53
2023-01-02T22:04:07.540Z,97448.94
2023-01-02T22:09:09.488Z,97444.22
2023-01-02T22:14:12.850Z,97455.28
2023-01-02T22:19:15.048Z,97461.53
2023-01-02T22:24:17.877Z,97462.16
2023-01-02T22:29:29.222Z,97465.59
2023-01-02T22:34:43.656Z,97472.50
2023-01-02T22:39:45.670Z,97454.66
2023-01-02T22:44:49.151Z,97429.78
2023-01-02T22:49:51.019Z,97437.34
2023-01-02T22:54:53.085Z,97432.25
2023-01-02T22:59:56.477Z,97431.31
2023-01-02T23:04:58.787Z,97432.06
2023-01-02T23:10:00.769Z,97444.25
2023-01-02T23:15:05.800Z,97420.94
2023-01-02T23:20:08.661Z,97459.63
2023-01-02T23:25:10.683Z,97457.16
2023-01-02T23:30:14.516Z,97476.94
2023-01-02T23:35:16.628Z,97469.50
2023-01-02T23:40:18.690Z,97481.19
2023-01-02T23:45:22.514Z,97463.69
2023-01-02T23:50:24.498Z,97466.13
2023-01-02T23:55:26.548Z,97463.03
